sensor_id;sensor_type;location;lat;lon;timestamp;pressure;altitude;pressure_sealevel;temperature;humidity
6668;BME280;3370;47.712;9.082;2023-02-18T00:01:27;98213.16;;;8.72;100.00
6668;BME280;3370;47.712;9.082;2023-02-18T00:03:55;98219.28;;;8.65;100.00
6668;BME280;3370;47.712;9.082;2023-02-18T00:06:33;98207.16;;;8.72;100.00
6668;BME280;3370;47.712;9.082;2023-02-18T00:09:00;98205.66;;;8.61;100.00
6668;BME280;3370;47.712;9.082;2023-02-18T00:11:29;98208.06;;;8.71;100.00
6668;BME280;3370;47.712;9.082;2023-02-18T00:13:58;98209.72;;;8.72;100.00
6668;BME280;3370;47.712;9.082;2023-02-18T00:16:27;98205.50;;;8.71;100.00
6668;BME280;3370;47.712;9.082;2023-02-18T00:18:58;98206.34;;;8.70;100.00
6668;BME280;3370;47.712;9.082;2023-02-18T00:21:24;98197.81;;;8.71;100.00
6668;BME280;3370;47.712;9.082;2023-02-18T00:23:50;98198.88;;;8.59;100.00
6668;BME280;3370;47.712;9.082;2023-02-18T00:26:17;98192.84;;;8.61;100.00
6668;BME280;3370;47.712;9.082;2023-02-18T00:28:45;98189.53;;;8.56;100.00
6668;BME280;3370;47.712;9.082;2023-02-18T00:31:38;98192.16;;;8.52;100.00
6668;BME280;3370;47.712;9.082;2023-02-18T00:34:04;98183.81;;;8.42;100.00
6668;BME280;3370;47.712;9.082;2023-02-18T00:36:32;98187.91;;;8.52;100.00
6668;BME280;3370;47.712;9.082;2023-02-18T00:39:00;98185.44;;;8.44;100.00
6668;BME280;3370;47.712;9.082;2023-02-18T00:41:29;98189.53;;;8.56;100.00
6668;BME280;3370;47.712;9.082;2023-02-18T00:43:55;98175.03;;;8.54;100.00
6668;BME280;3370;47.712;9.082;2023-02-18T00:46:23;98175.09;;;8.52;100.00
6668;BME280;3370;47.712;9.082;2023-02-18T00:48:49;98169.03;;;8.55;100.00
6668;BME280;3370;47.712;9.082;2023-02-18T00:51:15;98182.59;;;8.61;100.00
6668;BME280;3370;47.712;9.082;2023-02-18T00:53:41;98180.91;;;8.60;100.00
6668;BME280;3370;47.712;9.082;2023-02-18T00:56:07;98179.28;;;8.56;100.00
6668;BME280;3370;47.712;9.082;2023-02-18T00:58:34;98173.41;;;8.50;100.00
6668;BME280;3370;47.712;9.082;2023-02-18T01:01:02;98171.63;;;8.53;100.00
6668;BME280;3370;47.712;9.082;2023-02-18T01:03:28;98172.41;;;8.57;100.00
6668;BME280;3370;47.712;9.082;2023-02-18T01:05:54;98174.13;;;8.56;100.00
6668;BME280;3370;47.712;9.082;2023-02-18T01:08:21;98162.75;;;8.71;100.00
6668;BME280;3370;47.712;9.082;2023-02-18T01:10:53;98165.41;;;8.67;100.00
6668;BME280;3370;47.712;9.082;2023-02-18T01:13:19;98163.84;;;8.59;100.00
6668;BME280;3370;47.712;9.082;2023-02-18T01:15:45;98164.56;;;8.64;100.00
6668;BME280;3370;47.712;9.082;2023-02-18T01:18:11;98158.72;;;8.58;100.00
6668;BME280;3370;47.712;9.082;2023-02-18T01:20:40;98162.13;;;8.58;100.00
6668;BME280;3370;47.712;9.082;2023-02-18T01:23:07;98163.75;;;8.62;100.00
6668;BME280;3370;47.712;9.082;2023-02-18T01:25:35;98154.25;;;8.68;100.00
6668;BME280;3370;47.712;9.082;2023-02-18T01:28:00;98151.41;;;8.83;100.00
6668;BME280;3370;47.712;9.082;2023-02-18T01:30:26;98153.84;;;8.88;100.00
6668;BME280;3370;47.712;9.082;2023-02-18T01:32:52;98158.97;;;8.89;100.00
6668;BME280;3370;47.712;9.082;2023-02-18T01:35:20;98161.94;;;8.69;100.00
6668;BME280;3370;47.712;9.082;2023-02-18T01:37:46;98164.47;;;8.71;100.00
6668;BME280;3370;47.712;9.082;2023-02-18T01:40:16;98150.63;;;8.79;100.00
6668;BME280;3370;47.712;9.082;2023-02-18T01:42:43;98160.00;;;8.79;100.00
6668;BME280;3370;47.712;9.082;2023-02-18T01:48:15;98156.63;;;8.77;100.00
6668;BME280;3370;47.712;9.082;2023-02-18T01:50:49;98150.56;;;8.81;100.00
6668;BME280;3370;47.712;9.082;2023-02-18T01:53:23;98151.69;;;8.68;100.00
6668;BME280;3370;47.712;9.082;2023-02-18T01:55:51;98153.31;;;8.72;100.00
6668;BME280;3370;47.712;9.082;2023-02-18T01:58:17;98141.94;;;8.87;100.00
6668;BME280;3370;47.712;9.082;2023-02-18T02:00:43;98153.81;;;8.89;100.00
6668;BME280;3370;47.712;9.082;2023-02-18T02:03:09;98146.38;;;8.77;100.00
6668;BME280;3370;47.712;9.082;2023-02-18T02:05:35;98140.28;;;8.82;100.00
6668;BME280;3370;47.712;9.082;2023-02-18T02:08:02;98139.63;;;8.73;100.00
6668;BME280;3370;47.712;9.082;2023-02-18T02:16:33;98139.38;;;8.85;100.00
6668;BME280;3370;47.712;9.082;2023-02-18T02:19:45;98150.41;;;8.90;100.00
6668;BME280;3370;47.712;9.082;2023-02-18T02:54:27;98107.66;;;8.89;100.00
6668;BME280;3370;47.712;9.082;2023-02-18T02:59:49;98101.56;;;8.93;100.00
6668;BME280;3370;47.712;9.082;2023-02-18T03:08:40;98102.41;;;8.53;100.00
6668;BME280;3370;47.712;9.082;2023-02-18T03:11:13;98106.50;;;8.62;100.00
6668;BME280;3370;47.712;9.082;2023-02-18T03:14:10;98107.34;;;8.62;100.00
6668;BME280;3370;47.712;9.082;2023-02-18T03:17:11;98110.03;;;8.58;100.00
6668;BME280;3370;47.712;9.082;2023-02-18T03:19:51;98107.72;;;8.86;100.00
6668;BME280;3370;47.712;9.082;2023-02-18T03:22:22;98101.00;;;8.80;100.00
6668;BME280;3370;47.712;9.082;2023-02-18T03:24:52;98093.03;;;8.94;100.00
6668;BME280;3370;47.712;9.082;2023-02-18T03:27:29;98093.09;;;8.90;100.00
6668;BME280;3370;47.712;9.082;2023-02-18T03:30:08;98094.63;;;8.98;100.00
6668;BME280;3370;47.712;9.082;2023-02-18T03:32:36;98099.75;;;8.98;100.00
6668;BME280;3370;47.712;9.082;2023-02-18T03:35:10;98101.84;;;8.81;100.00
6668;BME280;3370;47.712;9.082;2023-02-18T03:37:44;98103.47;;;8.85;100.00
6668;BME280;3370;47.712;9.082;2023-02-18T03:40:13;98090.63;;;8.87;100.00
6668;BME280;3370;47.712;9.082;2023-02-18T03:42:40;98090.47;;;8.93;100.00
6668;BME280;3370;47.712;9.082;2023-02-18T03:45:06;98093.31;;;8.80;100.00
6668;BME280;3370;47.712;9.082;2023-02-18T03:47:32;98096.53;;;8.90;100.00
6668;BME280;3370;47.712;9.082;2023-02-18T03:49:58;98096.44;;;8.93;100.00
6668;BME280;3370;47.712;9.082;2023-02-18T03:52:24;98093.22;;;8.85;100.00
6668;BME280;3370;47.712;9.082;2023-02-18T03:54:49;98091.66;;;8.78;100.00
6668;BME280;3370;47.712;9.082;2023-02-18T03:57:15;98096.00;;;8.74;100.00
6668;BME280;3370;47.712;9.082;2023-02-18T03:59:41;98092.63;;;8.74;100.00
6668;BME280;3370;47.712;9.082;2023-02-18T04:02:07;98089.06;;;8.79;100.00
6668;BME280;3370;47.712;9.082;2023-02-18T04:04:33;98091.06;;;8.67;100.00
6668;BME280;3370;47.712;9.082;2023-02-18T04:06:58;98096.41;;;8.54;100.00
6668;BME280;3370;47.712;9.082;2023-02-18T04:09:24;98093.66;;;8.63;100.00
6668;BME280;3370;47.712;9.082;2023-02-18T04:11:50;98096.34;;;8.57;100.00
6668;BME280;3370;47.712;9.082;2023-02-18T04:14:16;98106.66;;;8.56;100.00
6668;BME280;3370;47.712;9.082;2023-02-18T04:16:42;98093.25;;;8.40;100.00
6668;BME280;3370;47.712;9.082;2023-02-18T04:19:07;98102.34;;;8.58;100.00
6668;BME280;3370;47.712;9.082;2023-02-18T04:21:34;98088.66;;;8.57;100.00
6668;BME280;3370;47.712;9.082;2023-02-18T04:24:00;98091.28;;;8.54;100.00
6668;BME280;3370;47.712;9.082;2023-02-18T04:26:26;98100.75;;;8.52;100.00
6668;BME280;3370;47.712;9.082;2023-02-18T04:28:52;98093.13;;;8.48;100.00
6668;BME280;3370;47.712;9.082;2023-02-18T04:31:17;98089.00;;;8.39;100.00
6668;BME280;3370;47.712;9.082;2023-02-18T04:33:43;98076.09;;;8.45;100.00
6668;BME280;3370;47.712;9.082;2023-02-18T04:36:09;98075.38;;;8.37;100.00
6668;BME280;3370;47.712;9.082;2023-02-18T04:38:35;98073.78;;;8.30;100.00
6668;BME280;3370;47.712;9.082;2023-02-18T04:41:01;98079.84;;;8.25;100.00
6668;BME280;3370;47.712;9.082;2023-02-18T04:43:26;98069.69;;;8.21;100.00
6668;BME280;3370;47.712;9.082;2023-02-18T04:45:52;98082.81;;;8.04;100.00
6668;BME280;3370;47.712;9.082;2023-02-18T04:48:18;98075.13;;;8.04;100.00
6668;BME280;3370;47.712;9.082;2023-02-18T04:50:45;98083.00;;;7.95;100.00
6668;BME280;3370;47.712;9.082;2023-02-18T04:53:11;98079.66;;;7.90;100.00
6668;BME280;3370;47.712;9.082;2023-02-18T04:55:36;98082.88;;;8.01;100.00
6668;BME280;3370;47.712;9.082;2023-02-18T04:58:02;98082.41;;;7.79;100.00
6668;BME280;3370;47.712;9.082;2023-02-18T05:00:28;98080.81;;;7.72;100.00
6668;BME280;3370;47.712;9.082;2023-02-18T05:02:54;98078.88;;;7.86;100.00
6668;BME280;3370;47.712;9.082;2023-02-18T05:05:20;98077.22;;;7.83;100.00
6668;BME280;3370;47.712;9.082;2023-02-18T05:07:46;98078.13;;;7.79;100.00
6668;BME280;3370;47.712;9.082;2023-02-18T05:10:16;98073.91;;;7.78;100.00
6668;BME280;3370;47.712;9.082;2023-02-18T05:12:42;98072.97;;;7.82;100.00
6668;BME280;3370;47.712;9.082;2023-02-18T05:15:09;98074.53;;;7.91;100.00
6668;BME280;3370;47.712;9.082;2023-02-18T05:17:34;98084.59;;;8.00;100.00
6668;BME280;3370;47.712;9.082;2023-02-18T05:20:00;98071.66;;;8.06;100.00
6668;BME280;3370;47.712;9.082;2023-02-18T05:22:26;98075.78;;;8.15;100.00
6668;BME280;3370;47.712;9.082;2023-02-18T05:24:52;98075.13;;;8.05;100.00
6668;BME280;3370;47.712;9.082;2023-02-18T05:27:18;98070.81;;;8.07;100.00
6668;BME280;3370;47.712;9.082;2023-02-18T05:29:44;98063.72;;;8.20;100.00
6668;BME280;3370;47.712;9.082;2023-02-18T05:32:09;98069.78;;;8.16;100.00
6668;BME280;3370;47.712;9.082;2023-02-18T05:34:35;98072.19;;;8.25;100.00
6668;BME280;3370;47.712;9.082;2023-02-18T05:37:01;98074.75;;;8.25;100.00
6668;BME280;3370;47.712;9.082;2023-02-18T05:39:27;98066.16;;;8.26;100.00
6668;BME280;3370;47.712;9.082;2023-02-18T05:41:52;98059.19;;;8.33;99.60
6668;BME280;3370;47.712;9.082;2023-02-18T05:44:18;98064.38;;;8.30;99.48
6668;BME280;3370;47.712;9.082;2023-02-18T05:47:03;98074.72;;;8.27;99.84
6668;BME280;3370;47.712;9.082;2023-02-18T05:49:30;98065.28;;;8.28;99.60
6668;BME280;3370;47.712;9.082;2023-02-18T05:51:57;98061.94;;;8.25;99.27
6668;BME280;3370;47.712;9.082;2023-02-18T05:54:23;98063.59;;;8.26;99.18
6668;BME280;3370;47.712;9.082;2023-02-18T05:56:49;98061.22;;;8.17;99.76
6668;BME280;3370;47.712;9.082;2023-02-18T05:59:15;98055.09;;;8.24;99.08
6668;BME280;3370;47.712;9.082;2023-02-18T06:01:42;98057.09;;;8.10;99.26
6668;BME280;3370;47.712;9.082;2023-02-18T06:04:08;98055.34;;;8.12;99.42
6668;BME280;3370;47.712;9.082;2023-02-18T06:06:34;98054.66;;;8.02;99.98
6668;BME280;3370;47.712;9.082;2023-02-18T06:09:00;98065.91;;;7.94;100.00
6668;BME280;3370;47.712;9.082;2023-02-18T06:11:26;98064.09;;;8.00;100.00
6668;BME280;3370;47.712;9.082;2023-02-18T06:13:52;98065.66;;;8.09;100.00
6668;BME280;3370;47.712;9.082;2023-02-18T06:16:18;98063.91;;;8.11;100.00
6668;BME280;3370;47.712;9.082;2023-02-18T06:18:43;98069.84;;;8.13;100.00
6668;BME280;3370;47.712;9.082;2023-02-18T06:21:09;98060.41;;;8.15;100.00
6668;BME280;3370;47.712;9.082;2023-02-18T06:23:35;98061.94;;;8.25;100.00
6668;BME280;3370;47.712;9.082;2023-02-18T06:26:01;98070.56;;;8.21;100.00
6668;BME280;3370;47.712;9.082;2023-02-18T06:28:26;98057.41;;;8.38;99.89
6668;BME280;3370;47.712;9.082;2023-02-18T06:30:52;98069.91;;;8.55;98.87
6668;BME280;3370;47.712;9.082;2023-02-18T06:33:18;98065.69;;;8.53;98.47
6668;BME280;3370;47.712;9.082;2023-02-18T06:35:58;98063.44;;;8.36;99.01
6668;BME280;3370;47.712;9.082;2023-02-18T06:38:24;98061.63;;;8.42;99.45
6668;BME280;3370;47.712;9.082;2023-02-18T06:40:50;98061.59;;;8.44;99.15
6668;BME280;3370;47.712;9.082;2023-02-18T06:43:17;98061.44;;;8.50;99.26
6668;BME280;3370;47.712;9.082;2023-02-18T06:45:44;98054.47;;;8.58;98.61
6668;BME280;3370;47.712;9.082;2023-02-18T06:48:09;98055.25;;;8.62;97.96
6668;BME280;3370;47.712;9.082;2023-02-18T06:50:35;98060.34;;;8.63;97.23
6668;BME280;3370;47.712;9.082;2023-02-18T06:53:01;98056.22;;;8.56;97.67
6668;BME280;3370;47.712;9.082;2023-02-18T06:55:27;98053.53;;;8.61;97.13
6668;BME280;3370;47.712;9.082;2023-02-18T06:57:53;98047.53;;;8.63;96.49
6668;BME280;3370;47.712;9.082;2023-02-18T07:00:19;98058.78;;;8.56;97.10
6668;BME280;3370;47.712;9.082;2023-02-18T07:02:45;98055.25;;;8.60;96.60
6668;BME280;3370;47.712;9.082;2023-02-18T07:05:10;98062.91;;;8.63;95.92
6668;BME280;3370;47.712;9.082;2023-02-18T07:07:39;98058.72;;;8.59;96.28
6668;BME280;3370;47.712;9.082;2023-02-18T07:10:06;98058.59;;;8.64;95.71
6668;BME280;3370;47.712;9.082;2023-02-18T07:12:32;98072.25;;;8.64;95.64
6668;BME280;3370;47.712;9.082;2023-02-18T07:14:58;98067.09;;;8.66;95.45
6668;BME280;3370;47.712;9.082;2023-02-18T07:17:24;98070.47;;;8.68;95.09
6668;BME280;3370;47.712;9.082;2023-02-18T07:19:50;98072.16;;;8.71;94.65
6668;BME280;3370;47.712;9.082;2023-02-18T07:22:16;98064.44;;;8.72;94.78
6668;BME280;3370;47.712;9.082;2023-02-18T07:24:42;98061.84;;;8.74;94.87
6668;BME280;3370;47.712;9.082;2023-02-18T07:27:08;98064.78;;;8.96;93.39
6668;BME280;3370;47.712;9.082;2023-02-18T07:29:34;98058.19;;;8.84;92.83
6668;BME280;3370;47.712;9.082;2023-02-18T07:32:00;98061.78;;;8.75;93.77
6668;BME280;3370;47.712;9.082;2023-02-18T07:34:25;98059.13;;;8.80;93.95
6668;BME280;3370;47.712;9.082;2023-02-18T07:36:51;98058.22;;;8.82;93.12
6668;BME280;3370;47.712;9.082;2023-02-18T07:39:17;98061.44;;;8.92;93.19
6668;BME280;3370;47.712;9.082;2023-02-18T07:41:48;98070.53;;;9.06;92.37
6668;BME280;3370;47.712;9.082;2023-02-18T07:44:14;98067.47;;;8.88;92.69
6668;BME280;3370;47.712;9.082;2023-02-18T07:46:41;98069.03;;;8.95;92.32
6668;BME280;3370;47.712;9.082;2023-02-18T07:49:07;98068.97;;;8.98;92.23
6668;BME280;3370;47.712;9.082;2023-02-18T07:51:33;98072.63;;;8.88;92.74
6668;BME280;3370;47.712;9.082;2023-02-18T07:53:59;98079.25;;;8.98;92.25
6668;BME280;3370;47.712;9.082;2023-02-18T07:56:25;98073.06;;;9.07;91.62
6668;BME280;3370;47.712;9.082;2023-02-18T07:58:51;98073.94;;;9.06;91.26
6668;BME280;3370;47.712;9.082;2023-02-18T08:01:17;98071.44;;;9.05;92.01
6668;BME280;3370;47.712;9.082;2023-02-18T08:03:43;98078.16;;;9.09;91.01
6668;BME280;3370;47.712;9.082;2023-02-18T08:06:21;98083.31;;;9.09;90.95
6668;BME280;3370;47.712;9.082;2023-02-18T08:08:49;98085.78;;;9.12;91.04
6668;BME280;3370;47.712;9.082;2023-02-18T08:11:15;98081.59;;;9.08;91.21
6668;BME280;3370;47.712;9.082;2023-02-18T08:13:41;98085.72;;;9.15;90.92
6668;BME280;3370;47.712;9.082;2023-02-18T08:16:08;98081.47;;;9.14;90.58
6668;BME280;3370;47.712;9.082;2023-02-18T08:18:34;98092.34;;;9.25;89.83
6668;BME280;3370;47.712;9.082;2023-02-18T08:21:00;98089.53;;;9.36;89.62
6668;BME280;3370;47.712;9.082;2023-02-18T08:23:26;98079.94;;;9.43;89.32
6668;BME280;3370;47.712;9.082;2023-02-18T08:25:52;98085.84;;;9.46;88.49
6668;BME280;3370;47.712;9.082;2023-02-18T08:28:21;98083.31;;;9.45;88.69
6668;BME280;3370;47.712;9.082;2023-02-18T08:30:49;98077.38;;;9.43;89.03
6668;BME280;3370;47.712;9.082;2023-02-18T08:33:17;98079.13;;;9.40;88.70
6668;BME280;3370;47.712;9.082;2023-02-18T08:35:44;98079.81;;;9.49;88.62
6668;BME280;3370;47.712;9.082;2023-02-18T08:38:11;98074.72;;;9.46;88.34
6668;BME280;3370;47.712;9.082;2023-02-18T08:40:37;98075.31;;;9.57;87.30
6668;BME280;3370;47.712;9.082;2023-02-18T08:43:03;98073.56;;;9.59;87.57
6668;BME280;3370;47.712;9.082;2023-02-18T08:45:28;98071.06;;;9.56;87.74
6668;BME280;3370;47.712;9.082;2023-02-18T08:47:54;98066.47;;;9.69;86.86
6668;BME280;3370;47.712;9.082;2023-02-18T08:50:20;98064.97;;;9.60;86.52
6668;BME280;3370;47.712;9.082;2023-02-18T08:52:51;98069.00;;;9.70;86.12
6668;BME280;3370;47.712;9.082;2023-02-18T08:55:17;98060.72;;;9.59;86.99
6668;BME280;3370;47.712;9.082;2023-02-18T08:57:47;98064.75;;;9.68;86.79
6668;BME280;3370;47.712;9.082;2023-02-18T09:00:15;98073.25;;;9.71;86.03
6668;BME280;3370;47.712;9.082;2023-02-18T09:02:42;98062.53;;;9.55;86.13
6668;BME280;3370;47.712;9.082;2023-02-18T09:05:09;98067.31;;;9.69;86.19
6668;BME280;3370;47.712;9.082;2023-02-18T09:07:36;98058.50;;;9.79;84.87
6668;BME280;3370;47.712;9.082;2023-02-18T09:10:02;98062.59;;;9.87;85.70
6668;BME280;3370;47.712;9.082;2023-02-18T09:12:32;98060.53;;;10.00;84.41
6668;BME280;3370;47.712;9.082;2023-02-18T09:14:58;98057.47;;;9.85;85.15
6668;BME280;3370;47.712;9.082;2023-02-18T09:17:26;98057.78;;;10.06;83.18
6668;BME280;3370;47.712;9.082;2023-02-18T09:19:52;98052.56;;;10.09;82.91
6668;BME280;3370;47.712;9.082;2023-02-18T09:22:18;98054.47;;;10.02;83.39
6668;BME280;3370;47.712;9.082;2023-02-18T09:24:44;98060.34;;;10.06;82.82
6668;BME280;3370;47.712;9.082;2023-02-18T09:27:10;98051.09;;;10.00;83.31
6668;BME280;3370;47.712;9.082;2023-02-18T09:29:39;98059.75;;;9.97;83.65
6668;BME280;3370;47.712;9.082;2023-02-18T09:32:06;98047.50;;;10.06;83.09
6668;BME280;3370;47.712;9.082;2023-02-18T09:34:33;98039.91;;;10.03;83.91
6668;BME280;3370;47.712;9.082;2023-02-18T09:36:59;98041.13;;;10.21;83.21
6668;BME280;3370;47.712;9.082;2023-02-18T09:39:26;98040.00;;;10.31;81.89
6668;BME280;3370;47.712;9.082;2023-02-18T09:41:55;98042.72;;;10.25;81.48
6668;BME280;3370;47.712;9.082;2023-02-18T09:44:28;98044.28;;;10.30;81.44
6668;BME280;3370;47.712;9.082;2023-02-18T09:47:29;98042.22;;;10.43;81.53
6668;BME280;3370;47.712;9.082;2023-02-18T09:49:55;98033.84;;;10.36;81.02
6668;BME280;3370;47.712;9.082;2023-02-18T09:52:28;98045.69;;;10.42;81.50
6668;BME280;3370;47.712;9.082;2023-02-18T09:54:56;98033.31;;;10.24;81.43
6668;BME280;3370;47.712;9.082;2023-02-18T09:58:13;98024.53;;;10.32;81.68
6668;BME280;3370;47.712;9.082;2023-02-18T10:00:38;98026.41;;;10.26;81.52
6668;BME280;3370;47.712;9.082;2023-02-18T10:03:18;98027.94;;;10.33;82.22
6668;BME280;3370;47.712;9.082;2023-02-18T10:06:05;98022.16;;;10.25;81.54
6668;BME280;3370;47.712;9.082;2023-02-18T10:08:45;98027.41;;;10.20;82.37
6668;BME280;3370;47.712;9.082;2023-02-18T10:11:28;98027.59;;;10.14;81.97
6668;BME280;3370;47.712;9.082;2023-02-18T10:13:55;98027.28;;;10.26;81.59
6668;BME280;3370;47.712;9.082;2023-02-18T10:16:23;98021.13;;;10.32;81.04
6668;BME280;3370;47.712;9.082;2023-02-18T10:18:55;98019.38;;;10.34;81.47
6668;BME280;3370;47.712;9.082;2023-02-18T10:21:28;98015.88;;;10.35;81.41
6668;BME280;3370;47.712;9.082;2023-02-18T10:24:37;98012.38;;;10.39;81.17
6668;BME280;3370;47.712;9.082;2023-02-18T10:27:07;98010.50;;;10.44;80.80
6668;BME280;3370;47.712;9.082;2023-02-18T10:29:34;98011.00;;;10.57;81.56
6668;BME280;3370;47.712;9.082;2023-02-18T10:32:39;98002.44;;;10.55;80.53
6668;BME280;3370;47.712;9.082;2023-02-18T10:40:53;97989.34;;;10.64;79.99
6668;BME280;3370;47.712;9.082;2023-02-18T10:52:17;97987.13;;;10.80;78.77
6668;BME280;3370;47.712;9.082;2023-02-18T10:55:01;97994.63;;;10.88;78.56
6668;BME280;3370;47.712;9.082;2023-02-18T10:57:30;97991.00;;;10.93;78.33
6668;BME280;3370;47.712;9.082;2023-02-18T11:00:14;97979.72;;;10.98;78.25
6668;BME280;3370;47.712;9.082;2023-02-18T11:02:41;97989.63;;;11.10;77.16
6668;BME280;3370;47.712;9.082;2023-02-18T11:05:26;97988.94;;;11.05;77.41
6668;BME280;3370;47.712;9.082;2023-02-18T11:07:55;97987.84;;;11.12;77.67
6668;BME280;3370;47.712;9.082;2023-02-18T11:10:30;97984.94;;;11.23;77.19
6668;BME280;3370;47.712;9.082;2023-02-18T11:13:04;97979.00;;;11.21;76.28
6668;BME280;3370;47.712;9.082;2023-02-18T11:15:31;97974.97;;;11.12;76.67
6668;BME280;3370;47.712;9.082;2023-02-18T11:21:04;97970.81;;;11.08;77.16
6668;BME280;3370;47.712;9.082;2023-02-18T11:23:31;97957.59;;;10.92;77.03
6668;BME280;3370;47.712;9.082;2023-02-18T11:26:09;97965.28;;;10.93;76.87
6668;BME280;3370;47.712;9.082;2023-02-18T11:28:44;97962.75;;;10.92;77.36
6668;BME280;3370;47.712;9.082;2023-02-18T11:31:23;97954.88;;;10.97;76.97
6668;BME280;3370;47.712;9.082;2023-02-18T11:33:57;97960.31;;;11.14;75.47
6668;BME280;3370;47.712;9.082;2023-02-18T11:36:34;97957.81;;;11.38;74.13
6668;BME280;3370;47.712;9.082;2023-02-18T11:39:46;97954.56;;;11.32;74.85
6668;BME280;3370;47.712;9.082;2023-02-18T11:42:05;97940.59;;;11.13;74.46
6668;BME280;3370;47.712;9.082;2023-02-18T11:49:42;97930.88;;;10.96;75.14
6668;BME280;3370;47.712;9.082;2023-02-18T11:52:26;97924.00;;;10.97;75.21
6668;BME280;3370;47.712;9.082;2023-02-18T11:55:21;97920.41;;;11.02;75.34
6668;BME280;3370;47.712;9.082;2023-02-18T11:58:05;97915.38;;;10.98;75.36
6668;BME280;3370;47.712;9.082;2023-02-18T12:00:47;97902.91;;;11.12;74.58
6668;BME280;3370;47.712;9.082;2023-02-18T12:03:29;97896.75;;;11.16;74.62
6668;BME280;3370;47.712;9.082;2023-02-18T12:06:04;97899.97;;;11.23;74.66
6668;BME280;3370;47.712;9.082;2023-02-18T12:08:53;97901.06;;;11.16;74.62
6668;BME280;3370;47.712;9.082;2023-02-18T12:11:40;97912.97;;;11.18;74.51
6668;BME280;3370;47.712;9.082;2023-02-18T12:14:25;97913.34;;;11.32;73.53
6668;BME280;3370;47.712;9.082;2023-02-18T12:17:24;97906.59;;;11.55;72.49
6668;BME280;3370;47.712;9.082;2023-02-18T12:22:46;97905.81;;;11.53;72.53
6668;BME280;3370;47.712;9.082;2023-02-18T12:25:24;97905.56;;;11.59;71.99
6668;BME280;3370;47.712;9.082;2023-02-18T12:31:26;97892.84;;;11.78;71.16
6668;BME280;3370;47.712;9.082;2023-02-18T12:52:35;97861.22;;;11.98;70.69
6668;BME280;3370;47.712;9.082;2023-02-18T13:10:41;97828.03;;;14.15;64.06
6668;BME280;3370;47.712;9.082;2023-02-18T13:13:25;97824.75;;;14.48;60.85
6668;BME280;3370;47.712;9.082;2023-02-18T13:16:14;97825.09;;;14.76;60.18
6668;BME280;3370;47.712;9.082;2023-02-18T13:21:52;97809.31;;;14.10;61.57
6668;BME280;3370;47.712;9.082;2023-02-18T13:24:41;97805.97;;;14.08;61.78
6668;BME280;3370;47.712;9.082;2023-02-18T13:27:32;97798.41;;;14.03;61.09
6668;BME280;3370;47.712;9.082;2023-02-18T13:30:33;97795.66;;;13.89;61.76
6668;BME280;3370;47.712;9.082;2023-02-18T13:33:38;97809.03;;;14.16;61.51
6668;BME280;3370;47.712;9.082;2023-02-18T13:36:38;97796.59;;;14.42;60.80
6668;BME280;3370;47.712;9.082;2023-02-18T13:39:13;97803.69;;;14.19;60.79
6668;BME280;3370;47.712;9.082;2023-02-18T13:41:46;97792.25;;;14.06;60.95
6668;BME280;3370;47.712;9.082;2023-02-18T13:46:56;97798.88;;;13.75;61.51
6668;BME280;3370;47.712;9.082;2023-02-18T13:49:32;97789.22;;;13.59;62.61
6668;BME280;3370;47.712;9.082;2023-02-18T13:52:00;97788.78;;;13.31;63.46
6668;BME280;3370;47.712;9.082;2023-02-18T13:54:37;97784.53;;;13.49;63.07
6668;BME280;3370;47.712;9.082;2023-02-18T13:57:21;97784.03;;;13.59;62.57
6668;BME280;3370;47.712;9.082;2023-02-18T14:00:02;97774.34;;;13.25;63.65
6668;BME280;3370;47.712;9.082;2023-02-18T14:02:35;97781.94;;;13.49;62.90
6668;BME280;3370;47.712;9.082;2023-02-18T14:10:04;97762.00;;;13.13;62.96
6668;BME280;3370;47.712;9.082;2023-02-18T14:25:56;97762.81;;;13.34;61.87
6668;BME280;3370;47.712;9.082;2023-02-18T14:36:49;97774.81;;;13.54;60.06
6668;BME280;3370;47.712;9.082;2023-02-18T14:51:31;97763.19;;;13.24;60.55
6668;BME280;3370;47.712;9.082;2023-02-18T14:54:05;97759.00;;;13.22;61.06
6668;BME280;3370;47.712;9.082;2023-02-18T14:56:36;97754.31;;;13.11;61.28
6668;BME280;3370;47.712;9.082;2023-02-18T14:59:03;97764.91;;;13.05;61.73
6668;BME280;3370;47.712;9.082;2023-02-18T15:01:33;97747.09;;;12.99;61.55
6668;BME280;3370;47.712;9.082;2023-02-18T15:04:02;97758.63;;;12.71;62.58
6668;BME280;3370;47.712;9.082;2023-02-18T15:06:37;97766.03;;;12.58;63.37
6668;BME280;3370;47.712;9.082;2023-02-18T15:09:16;97766.09;;;12.57;63.47
6668;BME280;3370;47.712;9.082;2023-02-18T15:14:28;97763.38;;;12.39;63.94
6668;BME280;3370;47.712;9.082;2023-02-18T15:16:55;97762.22;;;12.46;63.70
6668;BME280;3370;47.712;9.082;2023-02-18T15:19:25;97763.19;;;12.44;64.34
6668;BME280;3370;47.712;9.082;2023-02-18T15:21:54;97754.38;;;12.50;64.00
6668;BME280;3370;47.712;9.082;2023-02-18T15:24:32;97758.88;;;12.44;64.05
6668;BME280;3370;47.712;9.082;2023-02-18T15:27:33;97755.41;;;12.23;65.20
6668;BME280;3370;47.712;9.082;2023-02-18T15:32:58;97761.84;;;12.13;65.35
6668;BME280;3370;47.712;9.082;2023-02-18T15:35:31;97756.75;;;12.12;65.55
6668;BME280;3370;47.712;9.082;2023-02-18T15:37:59;97759.34;;;12.12;65.60
6668;BME280;3370;47.712;9.082;2023-02-18T15:40:30;97753.81;;;12.21;64.91
6668;BME280;3370;47.712;9.082;2023-02-18T15:43:01;97764.94;;;12.21;65.13
6668;BME280;3370;47.712;9.082;2023-02-18T15:45:40;97765.69;;;12.03;65.59
6668;BME280;3370;47.712;9.082;2023-02-18T15:48:31;97765.75;;;12.01;65.99
6668;BME280;3370;47.712;9.082;2023-02-18T15:51:09;97762.44;;;11.98;65.96
6668;BME280;3370;47.712;9.082;2023-02-18T15:53:38;97757.00;;;11.82;66.22
6668;BME280;3370;47.712;9.082;2023-02-18T15:56:10;97750.41;;;11.75;66.39
6668;BME280;3370;47.712;9.082;2023-02-18T15:58:40;97755.81;;;11.68;66.51
6668;BME280;3370;47.712;9.082;2023-02-18T16:01:24;97758.53;;;11.42;67.50
6668;BME280;3370;47.712;9.082;2023-02-18T16:03:51;97758.28;;;11.26;67.97
6668;BME280;3370;47.712;9.082;2023-02-18T16:06:28;97753.34;;;11.20;68.09
6668;BME280;3370;47.712;9.082;2023-02-18T16:09:14;97748.47;;;11.12;68.60
6668;BME280;3370;47.712;9.082;2023-02-18T16:11:51;97745.66;;;11.18;68.56
6668;BME280;3370;47.712;9.082;2023-02-18T16:14:42;97743.13;;;11.17;68.41
6668;BME280;3370;47.712;9.082;2023-02-18T16:17:17;97738.56;;;11.01;68.61
6668;BME280;3370;47.712;9.082;2023-02-18T16:22:50;97740.78;;;10.87;69.29
6668;BME280;3370;47.712;9.082;2023-02-18T16:25:25;97732.19;;;10.88;69.48
6668;BME280;3370;47.712;9.082;2023-02-18T16:28:13;97723.00;;;10.81;69.79
6668;BME280;3370;47.712;9.082;2023-02-18T16:30:41;97726.91;;;10.66;70.26
6668;BME280;3370;47.712;9.082;2023-02-18T16:33:08;97724.19;;;10.70;70.07